createdAt,value
2018-09-25T00:00:27.206Z,6.12
2018-09-25T00:01:47.703Z,6.17
2018-09-25T00:02:47.695Z,6.19
2018-09-25T00:03:48.578Z,6.20
2018-09-25T00:04:48.616Z,6.19
2018-09-25T00:05:48.701Z,6.20
2018-09-25T00:06:47.777Z,6.19
2018-09-25T00:08:08.229Z,6.24
2018-09-25T00:09:30.131Z,6.22
2018-09-25T00:10:31.181Z,6.22
2018-09-25T00:11:31.266Z,6.22
2018-09-25T00:12:30.164Z,6.20
2018-09-25T00:13:30.432Z,6.22
2018-09-25T00:14:30.516Z,6.20
2018-09-25T00:15:30.485Z,6.22
2018-09-25T00:16:30.491Z,6.22
2018-09-25T00:17:33.039Z,6.22
2018-09-25T00:18:30.995Z,6.26
2018-09-25T00:19:31.088Z,6.24
2018-09-25T00:20:31.292Z,6.27
2018-09-25T00:21:30.277Z,6.27
2018-09-25T00:22:30.740Z,6.28
2018-09-25T00:23:30.671Z,6.28
2018-09-25T00:24:51.526Z,6.30
2018-09-25T00:25:51.461Z,6.30
2018-09-25T00:27:14.171Z,6.33
2018-09-25T00:28:35.943Z,6.33
2018-09-25T00:29:35.925Z,6.35
2018-09-25T00:30:36.231Z,6.36
2018-09-25T00:31:36.102Z,6.38
2018-09-25T00:32:35.867Z,6.41
2018-09-25T00:33:35.980Z,6.45
2018-09-25T00:34:35.852Z,6.44
2018-09-25T00:35:36.025Z,6.44
2018-09-25T00:36:36.055Z,6.44
2018-09-25T00:37:36.107Z,6.44
2018-09-25T00:38:36.360Z,6.41
2018-09-25T00:39:56.937Z,6.38
2018-09-25T00:40:56.867Z,6.33
2018-09-25T00:42:18.475Z,6.38
2018-09-25T00:43:18.395Z,6.42
2018-09-25T00:44:19.276Z,6.38
2018-09-25T00:45:18.331Z,6.31
2018-09-25T00:46:41.805Z,6.27
2018-09-25T00:47:45.168Z,6.22
2018-09-25T00:48:40.986Z,6.19
2018-09-25T00:49:42.866Z,6.16
2018-09-25T00:50:45.507Z,6.12
2018-09-25T00:51:44.471Z,6.11
2018-09-25T00:52:42.211Z,6.09
2018-09-25T00:54:04.061Z,6.08
2018-09-25T01:45:42.289Z,5.79
2018-09-25T01:47:05.228Z,5.80
2018-09-25T01:48:01.841Z,5.80
2018-09-25T01:48:59.892Z,5.82
2018-09-25T02:30:16.966Z,5.64
2018-09-25T02:31:37.679Z,5.61
2018-09-25T02:32:58.582Z,5.59
2018-09-25T02:33:59.435Z,5.57
2018-09-25T02:34:59.535Z,5.56
2018-09-25T02:35:59.513Z,5.56
2018-09-25T02:36:59.446Z,5.54
2018-09-25T02:37:59.622Z,5.51
2018-09-25T02:38:59.649Z,5.50
2018-09-25T02:39:58.896Z,5.51
2018-09-25T02:40:58.909Z,5.50
2018-09-25T02:41:58.927Z,5.50
2018-09-25T02:43:00.338Z,5.50
2018-09-25T02:43:59.615Z,5.48
2018-09-25T02:44:58.747Z,5.46
2018-09-25T02:45:59.664Z,5.44
2018-09-25T02:46:58.691Z,5.41
2018-09-25T02:47:58.648Z,5.38
2018-09-25T02:48:58.558Z,5.36
2018-09-25T02:49:58.555Z,5.38
2018-09-25T02:50:59.471Z,5.38
2018-09-25T02:51:59.600Z,5.38
2018-09-25T02:52:58.649Z,5.38
2018-09-25T02:53:58.793Z,5.35
2018-09-25T02:54:58.938Z,5.35
2018-09-25T02:55:59.200Z,5.36
2018-09-25T02:56:59.317Z,5.35
2018-09-25T02:57:59.421Z,5.38
2018-09-25T02:58:59.423Z,5.36
2018-09-25T02:59:59.417Z,5.35
2018-09-25T03:00:59.480Z,5.32
2018-09-25T03:01:58.734Z,5.36
2018-09-25T03:03:19.539Z,5.35
2018-09-25T03:04:40.506Z,5.33
2018-09-25T03:05:40.917Z,5.32
2018-09-25T03:06:41.179Z,5.30
2018-09-25T03:07:41.248Z,5.28
2018-09-25T03:09:02.340Z,5.29
2018-09-25T03:10:02.583Z,5.26
2018-09-25T03:11:02.850Z,5.25
2018-09-25T03:12:03.186Z,5.25
2018-09-25T03:13:09.499Z,5.17
2018-09-25T03:14:23.314Z,5.23
2018-09-25T03:15:23.584Z,5.26
2018-09-25T03:16:23.898Z,5.25
2018-09-25T03:17:23.970Z,5.23
2018-09-25T03:18:24.156Z,5.20
2018-09-25T03:19:24.320Z,5.17
2018-09-25T03:20:23.603Z,5.15
2018-09-25T03:21:23.591Z,5.15
2018-09-25T03:22:23.537Z,5.15
2018-09-25T03:23:23.757Z,5.15
2018-09-25T03:24:24.056Z,5.18
2018-09-25T03:26:05.374Z,5.25
2018-09-25T03:27:06.558Z,5.21
2018-09-25T03:28:06.585Z,5.26
2018-09-25T03:29:06.580Z,5.28
2018-09-25T03:30:05.903Z,5.29
2018-09-25T03:31:26.770Z,5.35
2018-09-25T03:32:27.573Z,5.33
2018-09-25T03:33:27.632Z,5.36
2018-09-25T03:34:48.827Z,5.43
2018-09-25T03:35:48.840Z,5.44
2018-09-25T03:36:48.971Z,5.46
2018-09-25T03:37:49.309Z,5.41
2018-09-25T03:38:49.276Z,5.41
2018-09-25T03:39:49.365Z,5.36
2018-09-25T03:40:49.288Z,5.35
2018-09-25T03:41:49.453Z,5.36
2018-09-25T03:42:51.038Z,5.38
2018-09-25T03:44:00.785Z,5.39
2018-09-25T03:44:49.642Z,5.43
2018-09-25T03:46:12.816Z,5.47
2018-09-25T03:47:13.022Z,5.51
2018-09-25T03:48:34.296Z,5.57
2018-09-25T03:49:34.118Z,5.59
2018-09-25T03:50:35.133Z,5.59
2018-09-25T03:51:34.597Z,5.59
2018-09-25T03:52:34.430Z,5.56
2018-09-25T03:53:36.283Z,5.53
2018-09-25T03:54:36.570Z,5.51
2018-09-25T03:55:34.889Z,5.48
2018-09-25T03:56:34.790Z,5.50
2018-09-25T03:57:35.636Z,5.51
2018-09-25T03:58:39.660Z,5.54
2018-09-25T03:59:34.681Z,5.56
2018-09-25T04:00:35.354Z,5.57
2018-09-25T04:01:35.244Z,5.56
2018-09-25T04:02:35.396Z,5.57
2018-09-25T04:03:35.634Z,5.59
2018-09-25T04:04:36.425Z,5.59
2018-09-25T04:05:35.145Z,5.59
2018-09-25T04:06:34.526Z,5.64
2018-09-25T04:07:34.532Z,5.64
2018-09-25T04:08:34.482Z,5.62
2018-09-25T04:09:35.848Z,5.64
2018-09-25T04:10:34.604Z,5.61
2018-09-25T04:11:34.998Z,5.59
2018-09-25T04:12:34.575Z,5.54
2018-09-25T04:13:56.713Z,5.51
2018-09-25T04:14:56.977Z,5.48
2018-09-25T04:15:56.981Z,5.44
2018-09-25T04:16:56.492Z,5.44
2018-09-25T04:17:56.580Z,5.43
2018-09-25T04:18:56.678Z,5.41
2018-09-25T04:19:56.853Z,5.38
2018-09-25T04:20:57.001Z,5.35
2018-09-25T04:21:55.995Z,5.33
2018-09-25T04:22:58.457Z,5.30
2018-09-25T04:23:57.041Z,5.28
2018-09-25T04:24:56.343Z,5.28
2018-09-25T04:25:56.307Z,5.29
2018-09-25T04:26:57.914Z,5.32
2018-09-25T04:27:56.257Z,5.36
2018-09-25T04:28:56.500Z,5.36
2018-09-25T04:29:59.035Z,5.39
2018-09-25T04:30:57.030Z,5.39
2018-09-25T04:31:57.097Z,5.38
2018-09-25T04:32:57.276Z,5.39
2018-09-25T04:33:57.466Z,5.39
2018-09-25T04:34:57.988Z,5.35
2018-09-25T04:35:58.190Z,5.33
2018-09-25T04:36:56.426Z,5.32
2018-09-25T04:38:01.292Z,5.29
2018-09-25T04:38:58.775Z,5.28
2018-09-25T04:39:56.983Z,5.25
2018-09-25T04:40:56.919Z,5.23
2018-09-25T04:41:56.833Z,5.21
2018-09-25T04:42:57.019Z,5.18
2018-09-25T04:43:56.227Z,5.17
2018-09-25T04:44:57.172Z,5.17
2018-09-25T04:45:56.343Z,5.15
2018-09-25T04:46:56.334Z,5.14
2018-09-25T04:47:56.391Z,5.14
2018-09-25T04:48:56.531Z,5.11
2018-09-25T04:49:56.599Z,5.07
2018-09-25T04:50:56.686Z,5.04
2018-09-25T04:52:17.722Z,4.97
2018-09-25T04:53:17.664Z,4.94
2018-09-25T04:54:17.818Z,4.90
2018-09-25T04:55:18.004Z,4.87
2018-09-25T04:56:18.169Z,4.86
2018-09-25T04:57:18.505Z,4.84
2018-09-25T04:58:17.773Z,4.80
2018-09-25T04:59:17.581Z,4.77
2018-09-25T05:00:19.052Z,4.74
2018-09-25T05:01:18.157Z,4.71
2018-09-25T05:02:18.274Z,4.70
2018-09-25T05:03:18.475Z,4.73
2018-09-25T05:04:38.583Z,4.70
2018-09-25T05:05:38.996Z,4.68
2018-09-25T05:06:39.455Z,4.71
2018-09-25T05:07:39.447Z,4.67
2018-09-25T05:09:02.467Z,4.66
2018-09-25T05:10:01.652Z,4.66
2018-09-25T05:11:01.684Z,4.63
2018-09-25T05:12:01.843Z,4.60
2018-09-25T05:13:01.938Z,4.59
2018-09-25T05:14:02.245Z,4.59
2018-09-25T05:15:24.410Z,4.62
2018-09-25T05:16:24.530Z,4.63
2018-09-25T05:17:24.417Z,4.66
2018-09-25T05:18:24.511Z,4.67
2018-09-25T05:19:24.536Z,4.68
2018-09-25T05:20:24.634Z,4.71
2018-09-25T05:21:24.946Z,4.74
2018-09-25T05:22:25.089Z,4.75
2018-09-25T05:23:25.420Z,4.77
2018-09-25T05:24:24.583Z,4.75
2018-09-25T05:25:45.627Z,4.80
2018-09-25T05:27:06.736Z,4.82
2018-09-25T05:28:06.991Z,4.84
2018-09-25T05:29:06.942Z,4.84
2018-09-25T05:30:07.250Z,4.86
2018-09-25T05:31:07.509Z,4.86
2018-09-25T05:32:07.649Z,4.87
2018-09-25T05:33:08.149Z,4.87
2018-09-25T05:34:07.668Z,4.89
2018-09-25T05:35:08.063Z,4.90
2018-09-25T05:36:28.458Z,4.92
2018-09-25T05:37:29.024Z,4.90
2018-09-25T05:38:29.250Z,4.89
2018-09-25T05:39:28.476Z,4.89
2018-09-25T05:40:28.793Z,4.86
2018-09-25T05:41:29.204Z,4.89
2018-09-25T05:42:28.613Z,4.87
2018-09-25T05:43:29.057Z,4.92
2018-09-25T05:44:50.086Z,4.94
2018-09-25T05:45:50.231Z,4.96
2018-09-25T05:46:50.452Z,4.96
2018-09-25T05:47:50.498Z,4.99
2018-09-25T05:48:50.802Z,4.99
2018-09-25T05:49:50.179Z,5.00
2018-09-25T05:50:50.609Z,5.04
2018-09-25T05:51:50.918Z,5.07
2018-09-25T05:52:49.953Z,5.07
2018-09-25T05:53:50.112Z,5.08
2018-09-25T05:55:32.333Z,5.10
2018-09-25T05:56:32.699Z,5.07
2018-09-25T05:57:33.001Z,5.08
2018-09-25T05:58:54.323Z,5.05
2018-09-25T05:59:54.604Z,5.11
2018-09-25T06:00:54.924Z,5.12
2018-09-25T06:02:37.415Z,5.12
2018-09-25T06:03:38.301Z,5.12
2018-09-25T06:04:37.426Z,5.14
2018-09-25T06:05:37.841Z,5.17
2018-09-25T06:06:38.275Z,5.20
2018-09-25T06:07:58.009Z,5.25
2018-09-25T06:08:58.197Z,5.26
2018-09-25T06:09:58.541Z,5.28
2018-09-25T06:10:58.802Z,5.30
2018-09-25T06:11:58.883Z,5.36
2018-09-25T06:12:59.147Z,5.41
2018-09-25T06:13:58.339Z,5.47
2018-09-25T06:15:19.855Z,5.57
2018-09-25T06:16:20.093Z,5.68
2018-09-25T06:17:20.500Z,5.76
2018-09-25T06:18:19.753Z,5.84
2018-09-25T06:19:40.938Z,5.97
2018-09-25T06:20:41.080Z,6.04
2018-09-25T06:21:41.252Z,6.11
2018-09-25T06:22:41.319Z,6.20
2018-09-25T06:23:41.824Z,6.31
2018-09-25T06:24:41.090Z,6.36
2018-09-25T06:26:02.067Z,6.45
2018-09-25T06:27:02.384Z,6.48
2018-09-25T06:28:02.597Z,6.51
2018-09-25T06:29:23.697Z,6.57
2018-09-25T06:30:23.955Z,6.62
2018-09-25T06:31:45.391Z,6.60
2018-09-25T06:32:45.631Z,6.62
2018-09-25T06:33:45.863Z,6.64
2018-09-25T06:34:46.118Z,6.74
2018-09-25T06:35:45.543Z,6.92
2018-09-25T06:36:45.469Z,7.21
2018-09-25T06:37:45.654Z,7.57
2018-09-25T06:38:45.710Z,7.91
2018-09-25T06:39:45.997Z,8.26
2018-09-25T06:40:46.118Z,8.61
2018-09-25T06:41:45.236Z,8.97
2018-09-25T06:42:45.670Z,9.19
2018-09-25T06:43:45.872Z,9.48
2018-09-25T06:44:46.050Z,9.80
2018-09-25T06:45:46.304Z,10.10
2018-09-25T06:46:45.587Z,10.31
2018-09-25T06:47:45.872Z,10.54
2018-09-25T06:48:45.948Z,10.75
2018-09-25T06:49:45.345Z,10.97
2018-09-25T06:50:45.592Z,11.19
2018-09-25T06:51:45.988Z,11.44
2018-09-25T06:52:46.256Z,11.65
2018-09-25T06:54:06.283Z,12.03
2018-09-25T06:55:06.449Z,12.31
2018-09-25T06:56:06.686Z,12.53
2018-09-25T06:57:06.899Z,12.73
2018-09-25T06:58:07.216Z,12.94
2018-09-25T06:59:27.327Z,13.11
2018-09-25T07:00:27.443Z,13.27
2018-09-25T07:01:27.450Z,13.44
2018-09-25T07:02:48.910Z,13.62
2018-09-25T07:03:49.039Z,13.77
2018-09-25T07:05:31.642Z,13.93
2018-09-25T07:06:53.026Z,14.05
2018-09-25T07:08:14.650Z,13.90
2018-09-25T07:09:15.083Z,13.93
2018-09-25T07:10:15.536Z,13.95
2018-09-25T07:11:14.930Z,13.99
2018-09-25T07:12:14.906Z,14.05
2018-09-25T07:13:15.114Z,14.23
2018-09-25T07:14:35.510Z,14.37
2018-09-25T07:15:35.911Z,14.50
2018-09-25T07:16:57.232Z,14.65
2018-09-25T07:17:57.227Z,14.58
2018-09-25T07:18:57.372Z,14.66
2018-09-25T07:19:57.685Z,14.81
2018-09-25T07:21:39.597Z,14.77
2018-09-25T07:22:39.856Z,14.79
2018-09-25T07:24:01.142Z,14.69
2018-09-25T07:25:01.334Z,14.68
2018-09-25T07:26:01.701Z,14.84
2018-09-25T07:27:22.745Z,14.89
2018-09-25T07:28:23.108Z,15.03
2018-09-25T07:29:23.452Z,15.04
2018-09-25T07:30:23.769Z,15.28
2018-09-25T07:31:23.754Z,15.47
2018-09-25T07:32:22.953Z,15.54
2018-09-25T07:33:23.318Z,15.58
2018-09-25T07:34:23.358Z,15.52
2018-09-25T07:35:23.820Z,15.65
2018-09-25T07:36:23.151Z,15.83
2018-09-25T07:37:44.492Z,16.08
2018-09-25T07:38:44.651Z,16.17
2018-09-25T07:39:44.951Z,16.20
2018-09-25T07:40:45.365Z,16.08
2018-09-25T07:42:05.411Z,15.95
2018-09-25T07:43:05.742Z,15.98
2018-09-25T07:44:06.000Z,16.04
2018-09-25T07:45:05.374Z,16.09
2018-09-25T07:46:05.771Z,16.10
2018-09-25T07:47:05.942Z,15.92
2018-09-25T07:48:06.198Z,15.76
2018-09-25T07:49:06.318Z,15.70
2018-09-25T07:50:05.309Z,15.82
2018-09-25T07:51:05.486Z,15.94
2018-09-25T07:52:05.677Z,16.02
2018-09-25T07:53:06.252Z,16.23
2018-09-25T07:54:05.487Z,16.28
2018-09-25T07:55:26.887Z,16.23
2018-09-25T07:56:27.117Z,16.42
2018-09-25T07:57:27.477Z,16.51
2018-09-25T07:58:27.746Z,16.49
2018-09-25T07:59:26.914Z,16.53
2018-09-25T08:00:27.005Z,16.68
2018-09-25T08:01:27.273Z,16.78
2018-09-25T08:02:27.668Z,16.87
2018-09-25T08:03:27.747Z,16.83
2018-09-25T08:04:27.112Z,16.76
2018-09-25T08:05:27.392Z,16.79
2018-09-25T08:06:27.655Z,16.86
2018-09-25T08:07:28.059Z,16.86
2018-09-25T08:08:27.090Z,17.05
2018-09-25T08:09:27.039Z,17.15
2018-09-25T08:10:27.120Z,17.36
2018-09-25T08:11:27.433Z,17.59
2018-09-25T08:12:27.545Z,17.67
2018-09-25T08:13:27.740Z,17.80
2018-09-25T08:14:29.939Z,17.92
2018-09-25T08:15:27.246Z,18.08
2018-09-25T08:16:27.781Z,18.20
2018-09-25T08:17:27.128Z,18.40
2018-09-25T08:18:27.456Z,18.55
2018-09-25T08:19:27.753Z,18.45
2018-09-25T08:20:27.061Z,18.43
2018-09-25T08:21:27.173Z,18.25
2018-09-25T08:22:27.565Z,18.28
2018-09-25T08:23:27.914Z,18.38
2018-09-25T08:24:48.361Z,18.49
2018-09-25T08:25:48.687Z,18.68
2018-09-25T08:26:48.853Z,18.90
2018-09-25T08:27:49.181Z,18.81
2018-09-25T08:28:49.251Z,18.65
2018-09-25T08:29:48.796Z,18.86
2018-09-25T08:30:48.979Z,19.04
2018-09-25T08:31:49.314Z,19.22
2018-09-25T08:32:48.563Z,19.45
2018-09-25T08:33:48.728Z,19.51
2018-09-25T08:34:48.756Z,19.73
2018-09-25T08:35:49.061Z,19.73
2018-09-25T08:36:49.045Z,19.69
2018-09-25T08:37:48.471Z,19.74
2018-09-25T08:38:48.877Z,19.89
2018-09-25T08:39:48.364Z,20.00
2018-09-25T08:41:30.856Z,20.10
2018-09-25T08:42:52.189Z,20.22
2018-09-25T08:43:52.621Z,20.31
2018-09-25T08:45:13.560Z,20.55
2018-09-25T08:46:35.048Z,20.70
2018-09-25T08:47:35.172Z,20.84
2018-09-25T08:48:35.476Z,21.03
2018-09-25T08:49:36.237Z,21.22
2018-09-25T08:50:35.378Z,21.36
2018-09-25T08:51:56.649Z,21.40
2018-09-25T08:52:56.834Z,21.54
2018-09-25T08:53:57.100Z,21.58
2018-09-25T08:54:57.190Z,21.70
2018-09-25T08:56:18.246Z,21.80
2018-09-25T08:57:18.586Z,21.96
2018-09-25T08:58:18.629Z,21.98
2018-09-25T08:59:19.275Z,22.13
2018-09-25T09:00:18.382Z,22.15
2018-09-25T09:01:39.449Z,22.18
2018-09-25T09:03:00.354Z,22.29
2018-09-25T09:04:00.328Z,22.44
2018-09-25T09:05:00.702Z,22.59
2018-09-25T09:06:22.306Z,22.84
2018-09-25T09:07:22.699Z,23.00
2018-09-25T09:08:22.016Z,23.06
2018-09-25T09:09:22.718Z,23.23
2018-09-25T09:10:44.216Z,23.48
2018-09-25T09:11:44.565Z,23.58
2018-09-25T09:12:44.960Z,23.51
2018-09-25T09:14:05.368Z,23.24
2018-09-25T09:15:05.610Z,23.34
2018-09-25T09:16:27.594Z,23.54
2018-09-25T09:17:28.074Z,23.71
2018-09-25T09:18:28.288Z,23.68
2018-09-25T09:19:28.701Z,23.84
2018-09-25T09:20:27.966Z,23.96
2018-09-25T09:21:49.291Z,23.96
2018-09-25T09:22:49.418Z,23.92
2018-09-25T09:23:49.542Z,24.11
2018-09-25T09:24:49.799Z,24.21
2018-09-25T09:25:49.209Z,24.38
2018-09-25T09:26:49.494Z,24.32
2018-09-25T09:27:49.689Z,24.36
2018-09-25T09:29:11.173Z,24.40
2018-09-25T09:30:32.392Z,24.57
2018-09-25T09:31:32.473Z,24.65
2018-09-25T09:32:32.736Z,24.63
2018-09-25T09:33:33.114Z,24.42
2018-09-25T09:34:33.336Z,24.50
2018-09-25T09:35:32.643Z,24.68
2018-09-25T09:36:53.864Z,24.92
2018-09-25T09:37:54.139Z,25.06
2018-09-25T09:38:54.304Z,25.10
2018-09-25T09:39:54.398Z,25.03
2018-09-25T09:40:54.784Z,25.23
2018-09-25T09:41:54.220Z,25.21
2018-09-25T09:42:53.803Z,25.06
2018-09-25T09:43:54.128Z,25.07
2018-09-25T09:44:54.277Z,25.03
2018-09-25T09:46:36.364Z,25.10
2018-09-25T09:47:36.639Z,25.18
2018-09-25T09:48:36.715Z,25.17
2018-09-25T09:49:37.148Z,25.48
2018-09-25T09:50:36.472Z,25.55
2018-09-25T09:51:36.786Z,25.51
2018-09-25T09:52:57.809Z,25.60
2018-09-25T09:54:21.053Z,25.88
2018-09-25T09:55:21.236Z,25.99
2018-09-25T09:56:21.428Z,25.91
2018-09-25T09:57:42.993Z,25.70
2018-09-25T09:58:43.156Z,25.66
2018-09-25T09:59:43.634Z,25.80
2018-09-25T10:00:42.918Z,25.77
2018-09-25T10:01:43.281Z,25.93
2018-09-25T10:02:43.588Z,26.25
2018-09-25T10:03:45.333Z,26.31
2018-09-25T10:04:43.630Z,26.31
2018-09-25T10:06:03.694Z,26.58
2018-09-25T10:07:03.822Z,26.07
2018-09-25T10:08:03.950Z,26.19
2018-09-25T10:09:04.308Z,26.51
2018-09-25T10:10:04.571Z,26.70
2018-09-25T10:11:04.008Z,27.03
2018-09-25T10:12:04.410Z,27.08
2018-09-25T10:13:04.651Z,26.74
2018-09-25T10:14:03.723Z,26.60
2018-09-25T10:15:26.428Z,26.51
2018-09-25T10:16:47.775Z,26.18
2018-09-25T10:17:48.094Z,26.07
2018-09-25T10:18:48.276Z,25.78
2018-09-25T10:19:48.543Z,24.77
2018-09-25T10:20:47.945Z,24.20
2018-09-25T10:21:48.240Z,23.68
2018-09-25T10:22:48.571Z,23.15
2018-09-25T10:24:30.517Z,22.44
2018-09-25T10:25:30.860Z,22.63
2018-09-25T10:26:31.118Z,23.03
2018-09-25T10:27:31.404Z,23.39
2018-09-25T10:28:30.741Z,23.59
2018-09-25T10:29:30.743Z,23.03
2018-09-25T10:30:31.032Z,22.54
2018-09-25T10:31:31.438Z,21.87
2018-09-25T10:32:31.402Z,21.29
2018-09-25T10:33:31.453Z,20.84
2018-09-25T10:34:30.519Z,20.39
2018-09-25T10:35:30.751Z,20.03
2018-09-25T10:36:31.097Z,19.67
2018-09-25T10:37:31.314Z,19.36
2018-09-25T10:38:32.054Z,18.92
2018-09-25T10:39:31.279Z,18.56
2018-09-25T10:40:31.698Z,18.15
2018-09-25T10:41:31.003Z,17.87
2018-09-25T10:42:31.376Z,18.26
2018-09-25T10:43:30.643Z,18.68
2018-09-25T10:44:30.797Z,19.40
2018-09-25T10:45:31.056Z,20.07
2018-09-25T10:46:52.063Z,20.82
2018-09-25T10:47:52.186Z,21.37
2018-09-25T10:48:52.389Z,20.99
2018-09-25T10:50:13.600Z,20.28
2018-09-25T10:51:13.935Z,19.82
2018-09-25T10:52:35.032Z,19.31
2018-09-25T10:53:35.252Z,18.95
2018-09-25T10:54:35.547Z,18.63
2018-09-25T10:55:35.790Z,18.41
2018-09-25T10:56:36.263Z,19.07
2018-09-25T10:57:35.649Z,19.76
2018-09-25T10:58:35.990Z,20.43
2018-09-25T10:59:35.429Z,21.03
2018-09-25T11:00:35.602Z,21.69
2018-09-25T11:01:36.099Z,22.23
2018-09-25T11:02:35.589Z,22.72
2018-09-25T11:03:35.573Z,23.00
2018-09-25T11:04:36.751Z,23.44
2018-09-25T11:05:35.986Z,23.62
2018-09-25T11:06:35.303Z,23.92
2018-09-25T11:07:35.619Z,24.20
2018-09-25T11:08:35.996Z,24.08
2018-09-25T11:09:35.289Z,23.93
2018-09-25T11:10:35.712Z,24.16
2018-09-25T11:11:35.976Z,24.73
2018-09-25T11:13:58.782Z,25.41
2018-09-25T11:14:59.181Z,25.65
2018-09-25T11:16:00.172Z,25.80
2018-09-25T11:16:59.552Z,26.09
2018-09-25T11:17:58.874Z,26.25
2018-09-25T11:18:59.198Z,25.78
2018-09-25T11:19:59.495Z,24.85
2018-09-25T11:20:58.522Z,24.05
2018-09-25T11:21:58.709Z,23.39
2018-09-25T11:22:59.085Z,22.70
2018-09-25T11:23:59.548Z,22.59
2018-09-25T11:24:58.734Z,22.06
2018-09-25T11:25:58.944Z,21.33
2018-09-25T11:26:59.249Z,20.82
2018-09-25T11:27:58.631Z,20.52
2018-09-25T11:28:58.991Z,20.31
2018-09-25T11:30:20.391Z,20.03
2018-09-25T11:31:21.989Z,19.82
2018-09-25T11:32:21.055Z,19.54
2018-09-25T11:33:20.509Z,19.29
2018-09-25T11:34:20.580Z,18.96
2018-09-25T11:35:21.144Z,18.74
2018-09-25T11:36:20.614Z,18.49
2018-09-25T11:37:20.884Z,18.23
2018-09-25T11:38:21.334Z,18.03
2018-09-25T11:39:20.660Z,17.80
2018-09-25T11:40:20.814Z,17.63
2018-09-25T11:41:21.096Z,17.56
2018-09-25T11:42:44.615Z,17.68
2018-09-25T11:43:43.218Z,18.05
2018-09-25T11:44:42.796Z,18.88
2018-09-25T11:46:04.095Z,19.92
2018-09-25T11:47:04.621Z,20.66
2018-09-25T11:48:03.993Z,20.99
2018-09-25T11:49:25.226Z,20.52
2018-09-25T11:50:25.472Z,20.21
2018-09-25T11:51:26.055Z,19.85
2018-09-25T11:52:27.283Z,19.54
2018-09-25T11:53:27.084Z,19.21
2018-09-25T11:54:27.242Z,18.95
2018-09-25T11:55:25.403Z,18.68
2018-09-25T11:56:25.974Z,18.43
2018-09-25T11:57:25.801Z,18.19
2018-09-25T11:58:25.092Z,17.94
2018-09-25T11:59:25.365Z,17.71
2018-09-25T12:00:25.525Z,17.48
2018-09-25T12:01:25.817Z,17.33
2018-09-25T12:02:25.338Z,17.24
2018-09-25T12:03:25.902Z,17.45
2018-09-25T12:04:25.399Z,18.29
2018-09-25T12:05:25.916Z,19.07
2018-09-25T12:06:25.275Z,19.70
2018-09-25T12:07:25.493Z,20.29
2018-09-25T12:08:25.886Z,20.85
2018-09-25T12:09:25.373Z,21.35
2018-09-25T12:10:46.995Z,21.91
2018-09-25T12:11:48.081Z,22.38
2018-09-25T12:12:47.452Z,22.85
2018-09-25T12:13:47.981Z,23.18
2018-09-25T12:14:47.407Z,23.56
2018-09-25T12:15:48.342Z,23.88
2018-09-25T12:17:12.239Z,24.23
2018-09-25T12:18:33.597Z,24.28
2018-09-25T12:19:33.995Z,24.42
2018-09-25T12:20:34.427Z,24.73
2018-09-25T12:21:34.667Z,24.85
2018-09-25T12:22:34.064Z,25.01
2018-09-25T12:23:34.431Z,25.36
2018-09-25T12:24:34.319Z,25.63
2018-09-25T12:25:34.641Z,25.66
2018-09-25T12:26:34.261Z,25.96
2018-09-25T12:27:34.590Z,26.03
2018-09-25T12:28:35.269Z,26.02
2018-09-25T12:29:34.492Z,25.98
2018-09-25T12:30:54.881Z,26.00
2018-09-25T12:31:55.399Z,26.19
2018-09-25T12:32:56.322Z,26.41
2018-09-25T12:33:55.964Z,26.66
2018-09-25T12:34:55.825Z,26.78
2018-09-25T12:35:55.391Z,26.90
2018-09-25T12:37:16.649Z,27.11
2018-09-25T12:38:17.096Z,27.03
2018-09-25T12:39:17.521Z,27.08
2018-09-25T12:40:16.841Z,26.85
2018-09-25T12:41:17.269Z,26.84
2018-09-25T12:42:16.547Z,27.05
2018-09-25T12:43:17.961Z,26.89
2018-09-25T12:44:17.526Z,26.95
2018-09-25T12:45:17.999Z,27.08
2018-09-25T12:46:17.309Z,26.83
2018-09-25T12:47:16.856Z,26.55
2018-09-25T12:48:17.192Z,26.55
2018-09-25T12:49:16.429Z,26.51
2018-09-25T12:50:17.036Z,26.74
2018-09-25T12:51:17.316Z,26.88
2018-09-25T12:52:16.785Z,27.00
2018-09-25T12:53:17.227Z,26.92
2018-09-25T12:54:16.731Z,26.88
2018-09-25T12:55:17.289Z,26.31
2018-09-25T12:56:17.397Z,25.60
2018-09-25T12:57:17.052Z,25.06
2018-09-25T12:58:17.412Z,24.38
2018-09-25T12:59:16.871Z,24.14
2018-09-25T13:00:18.024Z,24.13
2018-09-25T13:01:17.404Z,24.08
2018-09-25T13:02:16.475Z,24.30
2018-09-25T13:03:17.203Z,24.02
2018-09-25T13:04:16.648Z,23.86
2018-09-25T13:05:17.040Z,23.69
2018-09-25T13:06:17.225Z,23.56
2018-09-25T13:07:16.645Z,23.28
2018-09-25T13:08:39.964Z,23.08
2018-09-25T13:09:38.513Z,23.09
2018-09-25T13:10:39.410Z,23.13
2018-09-25T13:12:04.194Z,23.20
2018-09-25T13:13:04.855Z,23.00
2018-09-25T13:14:08.743Z,22.80
2018-09-25T13:15:06.424Z,22.57
2018-09-25T13:16:04.550Z,22.30
2018-09-25T13:17:05.084Z,22.14
2018-09-25T13:18:05.245Z,21.98
2018-09-25T13:19:06.539Z,21.89
2018-09-25T13:20:06.483Z,21.69
2018-09-25T13:21:27.531Z,21.45
2018-09-25T13:22:27.015Z,21.22
2018-09-25T13:23:27.380Z,21.11
2018-09-25T13:24:26.979Z,20.92
2018-09-25T13:25:31.473Z,20.74
2018-09-25T13:26:27.219Z,20.63
2018-09-25T13:27:27.987Z,20.47
2018-09-25T13:28:28.035Z,20.31
2018-09-25T13:29:27.635Z,20.21
2018-09-25T13:30:27.001Z,20.09
2018-09-25T13:31:29.473Z,19.96
2018-09-25T13:32:27.168Z,19.81
2018-09-25T13:33:50.141Z,19.58
2018-09-25T13:34:51.475Z,19.36
2018-09-25T13:35:51.541Z,19.19
2018-09-25T13:36:53.149Z,18.98
2018-09-25T13:37:51.205Z,18.84
2018-09-25T13:38:50.494Z,18.81
2018-09-25T13:39:50.985Z,18.78
2018-09-25T13:40:50.235Z,18.77
2018-09-25T13:41:50.923Z,18.80
2018-09-25T13:42:50.480Z,18.80
2018-09-25T13:43:50.904Z,18.80
2018-09-25T13:44:50.312Z,18.81
2018-09-25T13:46:13.968Z,18.73
2018-09-25T13:47:14.465Z,18.71
2018-09-25T13:48:14.060Z,18.68
2018-09-25T13:49:14.498Z,18.63
2018-09-25T13:50:13.941Z,18.59
2018-09-25T13:51:14.008Z,18.53
2018-09-25T13:52:15.124Z,18.50
2018-09-25T13:53:14.769Z,18.40
2018-09-25T13:54:15.372Z,18.34
2018-09-25T13:55:13.533Z,18.33
2018-09-25T13:56:14.274Z,18.23
2018-09-25T13:57:15.710Z,18.13
2018-09-25T13:58:36.254Z,18.07
2018-09-25T13:59:37.507Z,18.04
2018-09-25T14:00:59.491Z,18.03
2018-09-25T14:01:59.397Z,18.03
2018-09-25T14:02:59.742Z,17.94
2018-09-25T14:03:58.908Z,17.87
2018-09-25T14:04:59.216Z,17.78
2018-09-25T14:06:20.318Z,17.70
2018-09-25T14:07:41.672Z,17.64
2018-09-25T14:08:42.065Z,17.63
2018-09-25T14:09:42.448Z,17.59
2018-09-25T14:10:41.580Z,17.54
2018-09-25T14:11:41.864Z,17.46
2018-09-25T14:12:42.091Z,17.45
2018-09-25T14:13:53.200Z,17.45
2018-09-25T14:15:02.432Z,17.41
2018-09-25T14:16:03.113Z,17.36
2018-09-25T14:17:04.564Z,17.33
2018-09-25T14:18:02.946Z,17.30
2018-09-25T14:19:04.387Z,17.27
2018-09-25T14:20:03.836Z,17.20
2018-09-25T14:21:25.132Z,17.23
2018-09-25T14:22:25.442Z,17.22
2018-09-25T14:23:26.959Z,17.16
2018-09-25T14:24:25.362Z,17.16
2018-09-25T14:25:25.972Z,17.16
2018-09-25T14:26:25.393Z,17.24
2018-09-25T14:27:26.363Z,17.26
2018-09-25T14:28:25.679Z,17.24
2018-09-25T14:29:26.074Z,17.26
2018-09-25T14:30:25.548Z,17.26
2018-09-25T14:31:26.157Z,17.22
2018-09-25T14:32:25.548Z,17.23
2018-09-25T14:33:26.566Z,17.27
2018-09-25T14:34:26.083Z,17.26
2018-09-25T14:35:25.626Z,17.20
2018-09-25T14:36:25.985Z,17.14
2018-09-25T14:37:46.751Z,17.09
2018-09-25T14:38:47.488Z,17.09
2018-09-25T14:39:46.754Z,17.11
2018-09-25T14:40:47.009Z,17.11
2018-09-25T14:41:47.210Z,17.19
2018-09-25T14:42:46.531Z,17.19
2018-09-25T14:43:48.390Z,17.23
2018-09-25T14:44:46.917Z,17.23
2018-09-25T14:45:47.173Z,17.27
2018-09-25T14:46:47.831Z,17.31
2018-09-25T14:47:47.542Z,17.31
2018-09-25T14:48:48.118Z,17.34
2018-09-25T14:49:46.628Z,17.34
2018-09-25T14:50:47.033Z,17.29
2018-09-25T14:51:47.164Z,17.33
2018-09-25T14:52:46.688Z,17.36
2018-09-25T14:53:47.374Z,17.36
2018-09-25T14:54:46.857Z,17.41
2018-09-25T14:55:47.262Z,17.45
2018-09-25T14:56:46.452Z,17.51
2018-09-25T14:57:46.854Z,17.56
2018-09-25T14:58:47.406Z,17.60
2018-09-25T14:59:46.933Z,17.59
2018-09-25T15:01:08.311Z,17.64
2018-09-25T15:02:08.510Z,17.65
2018-09-25T15:03:09.494Z,17.64
2018-09-25T15:04:09.091Z,17.52
2018-09-25T15:05:08.604Z,17.51
2018-09-25T15:06:09.909Z,17.54
2018-09-25T15:07:09.395Z,17.56
2018-09-25T15:08:09.722Z,17.57
2018-09-25T15:09:30.159Z,17.59
2018-09-25T15:10:31.460Z,17.64
2018-09-25T15:11:32.092Z,17.63
2018-09-25T15:12:52.501Z,17.57
2018-09-25T15:13:53.031Z,17.52
2018-09-25T15:15:14.274Z,17.48
2018-09-25T15:16:36.412Z,17.48